createdAt,value
2023-03-27T00:01:02.437Z,6.40
2023-03-27T00:03:34.316Z,6.30
2023-03-27T00:06:09.190Z,6.30
2023-03-27T00:08:39.931Z,6.30
2023-03-27T00:11:12.273Z,6.30
2023-03-27T00:13:49.918Z,6.30
2023-03-27T00:16:26.179Z,6.30
2023-03-27T00:18:58.160Z,6.30
2023-03-27T00:21:30.008Z,6.30
2023-03-27T00:24:03.011Z,6.30
2023-03-27T00:26:40.968Z,6.30
2023-03-27T00:29:14.727Z,6.30
2023-03-27T00:31:48.863Z,6.30
2023-03-27T00:34:22.956Z,6.20
2023-03-27T00:36:54.474Z,6.20
2023-03-27T00:39:27.546Z,6.20
2023-03-27T00:42:00.217Z,6.20
2023-03-27T00:44:36.887Z,6.20
2023-03-27T00:47:15.880Z,6.10
2023-03-27T00:49:50.736Z,6.20
2023-03-27T00:52:23.930Z,6.10
2023-03-27T00:54:55.982Z,6.20
2023-03-27T00:57:28.623Z,6.20
2023-03-27T01:00:10.604Z,6.20
2023-03-27T01:02:44.625Z,6.20
2023-03-27T01:05:17.887Z,6.20
2023-03-27T01:08:00.442Z,6.10
2023-03-27T01:10:54.913Z,6.10
2023-03-27T01:13:49.554Z,6.10
2023-03-27T01:16:32.346Z,6.10
2023-03-27T01:19:52.312Z,6.10
2023-03-27T01:23:05.199Z,6.00
2023-03-27T01:26:37.219Z,6.00
2023-03-27T01:29:23.128Z,6.00
2023-03-27T01:32:25.102Z,6.00
2023-03-27T01:35:21.136Z,6.00
2023-03-27T01:38:18.088Z,6.00
2023-03-27T01:40:58.971Z,5.90
2023-03-27T01:43:41.681Z,5.90
2023-03-27T01:46:19.661Z,5.80
2023-03-27T01:48:58.602Z,5.70
2023-03-27T01:51:38.818Z,5.70
2023-03-27T02:18:19.551Z,5.30
2023-03-27T02:20:50.873Z,5.30
2023-03-27T02:23:25.482Z,5.20
2023-03-27T02:25:56.983Z,5.20
2023-03-27T02:28:59.376Z,5.20
2023-03-27T02:31:58.298Z,5.20
2023-03-27T02:35:06.031Z,5.20
2023-03-27T02:38:00.285Z,5.10
2023-03-27T02:40:58.008Z,5.10
2023-03-27T02:44:02.620Z,5.20
2023-03-27T02:46:55.861Z,5.20
2023-03-27T02:49:37.118Z,5.20
2023-03-27T02:52:19.735Z,5.20
2023-03-27T02:54:56.602Z,5.20
2023-03-27T02:57:32.241Z,5.20
2023-03-27T03:00:39.594Z,5.20
2023-03-27T03:03:44.387Z,5.20
2023-03-27T03:06:49.865Z,5.10
2023-03-27T03:09:22.857Z,5.10
2023-03-27T03:11:58.108Z,5.10
2023-03-27T03:14:33.750Z,5.10
2023-03-27T03:17:04.571Z,5.10
2023-03-27T03:19:37.700Z,5.00
2023-03-27T03:22:10.941Z,5.00
2023-03-27T03:24:44.599Z,5.00
2023-03-27T03:27:23.606Z,5.00
2023-03-27T03:30:10.663Z,4.90
2023-03-27T03:33:00.429Z,4.90
2023-03-27T03:35:30.389Z,4.70
2023-03-27T03:38:04.050Z,4.70
2023-03-27T03:40:45.779Z,4.50
2023-03-27T03:43:16.702Z,4.40
2023-03-27T03:45:49.982Z,4.40
2023-03-27T03:48:23.268Z,4.40
2023-03-27T03:50:58.418Z,4.40
2023-03-27T03:53:30.372Z,4.40
2023-03-27T03:59:18.109Z,4.20
2023-03-27T04:02:07.960Z,4.10
2023-03-27T04:07:50.366Z,4.10
2023-03-27T04:10:42.278Z,4.00
2023-03-27T04:13:25.916Z,4.00
2023-03-27T04:16:09.962Z,4.00
2023-03-27T04:18:49.968Z,4.00
2023-03-27T04:21:22.898Z,3.90
2023-03-27T04:23:55.766Z,3.90
2023-03-27T04:26:33.839Z,3.80
2023-03-27T04:29:32.693Z,3.80
2023-03-27T04:32:26.522Z,3.70
2023-03-27T04:35:16.836Z,3.70
2023-03-27T04:37:57.276Z,3.60
2023-03-27T04:40:56.816Z,3.60
2023-03-27T04:43:28.423Z,3.60
2023-03-27T04:46:00.840Z,3.60
2023-03-27T04:48:31.917Z,3.60
2023-03-27T04:56:57.061Z,3.60
2023-03-27T04:59:32.061Z,3.50
2023-03-27T05:02:27.861Z,3.50
2023-03-27T05:05:06.385Z,3.50
2023-03-27T05:07:41.065Z,3.40
2023-03-27T05:10:13.190Z,3.40
2023-03-27T05:12:46.840Z,3.50
2023-03-27T05:15:22.165Z,3.50
2023-03-27T05:17:54.619Z,3.40
2023-03-27T05:20:28.249Z,3.50
2023-03-27T05:23:01.875Z,3.40
2023-03-27T05:25:34.924Z,3.40
2023-03-27T05:28:07.757Z,3.40
2023-03-27T05:30:43.668Z,3.50
2023-03-27T05:33:24.996Z,3.60
2023-03-27T05:35:59.871Z,3.60
2023-03-27T05:38:31.653Z,3.60
2023-03-27T05:41:17.169Z,3.60
2023-03-27T05:43:51.681Z,3.70
2023-03-27T05:46:25.674Z,3.70
2023-03-27T05:49:14.586Z,3.60
2023-03-27T05:52:08.949Z,3.50
2023-03-27T05:55:00.470Z,3.50
2023-03-27T05:57:33.738Z,3.50
2023-03-27T06:03:21.932Z,3.50
2023-03-27T06:06:18.255Z,3.60
2023-03-27T06:08:48.229Z,3.60
2023-03-27T06:11:19.657Z,3.60
2023-03-27T06:13:51.361Z,3.70
2023-03-27T06:16:29.096Z,3.80
2023-03-27T06:19:18.422Z,3.80
2023-03-27T06:21:56.985Z,3.80
2023-03-27T06:24:29.022Z,3.80
2023-03-27T06:27:01.327Z,3.80
2023-03-27T06:29:35.025Z,3.90
2023-03-27T06:32:05.032Z,3.90
2023-03-27T06:34:57.528Z,4.00
2023-03-27T06:37:52.827Z,4.10
2023-03-27T06:40:29.862Z,4.20
2023-03-27T06:43:04.350Z,4.20
2023-03-27T06:45:46.160Z,4.10
2023-03-27T06:48:45.787Z,4.20
2023-03-27T06:51:16.492Z,4.20
2023-03-27T06:53:49.746Z,4.30
2023-03-27T06:56:21.566Z,4.30
2023-03-27T06:59:09.482Z,4.40
2023-03-27T07:01:39.713Z,4.50
2023-03-27T07:04:30.237Z,4.60
2023-03-27T07:07:08.124Z,4.60
2023-03-27T07:09:46.463Z,4.60
2023-03-27T07:12:18.929Z,4.70
2023-03-27T07:14:50.669Z,4.80
2023-03-27T07:17:21.778Z,4.90
2023-03-27T07:19:58.951Z,5.00
2023-03-27T07:22:30.524Z,5.00
2023-03-27T07:25:09.781Z,5.10
2023-03-27T07:27:44.774Z,5.20
2023-03-27T07:30:17.262Z,5.20
2023-03-27T07:32:49.021Z,5.30
2023-03-27T07:35:20.022Z,5.30
2023-03-27T07:38:09.972Z,5.30
2023-03-27T07:40:41.449Z,5.20
2023-03-27T07:43:32.054Z,5.00
2023-03-27T07:46:06.276Z,4.80
2023-03-27T07:48:37.857Z,4.70
2023-03-27T07:51:13.826Z,4.60
2023-03-27T07:53:46.669Z,4.60
2023-03-27T07:56:26.836Z,4.80
2023-03-27T07:59:36.353Z,4.90
2023-03-27T08:02:17.563Z,5.00
2023-03-27T08:04:49.575Z,4.90
2023-03-27T08:07:23.615Z,5.00
2023-03-27T08:09:57.834Z,4.90
2023-03-27T08:12:30.291Z,5.00
2023-03-27T08:15:04.418Z,5.00
2023-03-27T08:17:36.240Z,4.90
2023-03-27T08:20:15.446Z,4.80
2023-03-27T08:22:50.491Z,4.70
2023-03-27T08:25:51.451Z,4.80
2023-03-27T08:28:27.887Z,4.90
2023-03-27T08:31:02.589Z,4.80
2023-03-27T08:33:36.506Z,4.90
2023-03-27T08:36:10.689Z,5.00
2023-03-27T08:38:41.998Z,5.00
2023-03-27T08:41:33.770Z,5.00
2023-03-27T08:44:20.472Z,5.00
2023-03-27T08:46:57.612Z,5.10
2023-03-27T08:49:38.090Z,5.20
2023-03-27T08:55:43.027Z,5.40
2023-03-27T08:58:31.062Z,5.60
2023-03-27T09:01:26.943Z,5.70
2023-03-27T09:04:13.825Z,5.80
2023-03-27T09:07:04.823Z,5.90
2023-03-27T09:09:59.621Z,6.10
2023-03-27T09:12:57.272Z,6.00
2023-03-27T09:15:34.729Z,5.90
2023-03-27T09:18:16.059Z,6.10
2023-03-27T09:20:55.672Z,6.30
2023-03-27T09:23:36.640Z,6.50
2023-03-27T09:26:39.260Z,6.70
2023-03-27T09:29:21.543Z,6.90
2023-03-27T09:32:02.496Z,7.00
2023-03-27T09:34:36.193Z,7.00
2023-03-27T09:37:15.255Z,6.50
2023-03-27T09:39:55.381Z,6.30
2023-03-27T09:42:35.489Z,6.30
2023-03-27T09:45:15.405Z,6.40
2023-03-27T09:48:24.833Z,6.50
2023-03-27T09:50:58.522Z,6.90
2023-03-27T09:53:36.666Z,7.20
2023-03-27T09:56:17.644Z,7.10
2023-03-27T09:59:00.177Z,7.00
2023-03-27T10:01:34.947Z,6.70
2023-03-27T10:04:17.840Z,6.50
2023-03-27T10:07:02.080Z,6.50
2023-03-27T10:10:12.478Z,6.30
2023-03-27T10:13:08.756Z,6.10
2023-03-27T10:15:42.953Z,6.20
2023-03-27T10:18:29.801Z,6.50
2023-03-27T10:21:14.877Z,6.70
2023-03-27T10:23:49.877Z,7.00
2023-03-27T10:26:39.748Z,7.20
2023-03-27T10:29:26.034Z,7.40
2023-03-27T10:31:58.534Z,7.20
2023-03-27T10:34:58.632Z,7.00
2023-03-27T10:37:51.457Z,7.10
2023-03-27T10:40:50.432Z,7.10
2023-03-27T10:43:40.593Z,7.30
2023-03-27T10:46:17.547Z,7.80
2023-03-27T10:49:01.436Z,8.40
2023-03-27T10:51:47.155Z,8.80
2023-03-27T10:54:42.907Z,9.10
2023-03-27T10:57:20.169Z,9.50
2023-03-27T10:59:56.653Z,9.50
2023-03-27T11:02:53.696Z,9.20
2023-03-27T11:05:30.919Z,8.80
2023-03-27T11:08:10.862Z,8.80
2023-03-27T11:10:44.480Z,8.80
2023-03-27T11:13:28.206Z,8.80
2023-03-27T11:16:17.738Z,8.60
2023-03-27T11:19:40.010Z,8.50
2023-03-27T11:22:40.750Z,8.70
2023-03-27T11:25:27.624Z,9.20
2023-03-27T11:28:17.395Z,9.80
2023-03-27T11:30:57.499Z,10.00
2023-03-27T11:33:44.736Z,10.10
2023-03-27T11:36:38.262Z,10.20
2023-03-27T11:39:23.454Z,10.30
2023-03-27T11:41:57.700Z,10.30
2023-03-27T11:44:30.652Z,10.00
2023-03-27T11:47:42.049Z,9.40
2023-03-27T11:50:35.039Z,9.00
2023-03-27T11:53:29.584Z,8.70
2023-03-27T11:56:42.142Z,8.60
2023-03-27T11:59:52.498Z,8.30
2023-03-27T12:03:10.976Z,8.30
2023-03-27T12:05:59.057Z,8.20
2023-03-27T12:08:55.023Z,8.20
2023-03-27T12:11:30.264Z,8.20
2023-03-27T12:14:41.156Z,8.20
2023-03-27T12:17:46.219Z,8.40
2023-03-27T12:21:02.901Z,8.30
2023-03-27T12:24:16.487Z,8.90
2023-03-27T12:27:55.770Z,10.10
2023-03-27T12:30:56.811Z,12.00
2023-03-27T12:33:48.978Z,13.10
2023-03-27T12:36:25.834Z,13.20
2023-03-27T12:38:57.221Z,13.40
2023-03-27T12:41:33.841Z,13.20
2023-03-27T12:44:15.555Z,12.80
2023-03-27T12:47:18.845Z,12.30
2023-03-27T12:50:00.026Z,11.50
2023-03-27T12:52:41.413Z,11.00
2023-03-27T12:55:38.062Z,10.60
2023-03-27T12:58:39.353Z,10.20
2023-03-27T13:01:52.194Z,9.80
2023-03-27T13:05:23.993Z,9.40
2023-03-27T13:08:38.193Z,9.00
2023-03-27T13:11:38.759Z,8.90
2023-03-27T13:14:38.600Z,8.30
2023-03-27T13:17:51.668Z,7.60
2023-03-27T13:20:37.979Z,7.20
2023-03-27T13:23:37.044Z,6.90
2023-03-27T13:26:30.106Z,6.80
2023-03-27T13:29:00.969Z,6.70
2023-03-27T13:32:00.868Z,6.70
2023-03-27T13:34:42.585Z,6.80
2023-03-27T13:37:58.463Z,6.90
2023-03-27T13:40:40.748Z,7.10
2023-03-27T13:43:25.335Z,7.10
2023-03-27T13:46:06.176Z,7.10
2023-03-27T13:49:04.829Z,6.90
2023-03-27T13:52:17.590Z,6.60
2023-03-27T13:55:19.682Z,6.40
2023-03-27T13:58:43.958Z,6.50
2023-03-27T14:01:38.701Z,6.80
2023-03-27T14:04:50.064Z,7.20
2023-03-27T14:08:10.388Z,7.40
2023-03-27T14:11:32.021Z,9.20
2023-03-27T14:14:43.067Z,11.70
2023-03-27T14:17:52.365Z,11.90
2023-03-27T14:20:26.521Z,12.50
2023-03-27T14:23:03.866Z,14.00
2023-03-27T14:25:51.928Z,14.30
2023-03-27T14:28:33.127Z,14.80
2023-03-27T14:31:11.340Z,15.70
2023-03-27T14:34:02.893Z,16.40
2023-03-27T14:36:35.998Z,17.30
2023-03-27T14:39:18.584Z,17.30
2023-03-27T14:41:56.793Z,16.30
2023-03-27T14:44:33.302Z,14.70
2023-03-27T14:47:19.096Z,13.30
2023-03-27T14:49:53.938Z,12.10
2023-03-27T14:52:37.888Z,11.40
2023-03-27T14:55:30.150Z,11.10
2023-03-27T14:58:26.067Z,10.60
2023-03-27T15:01:01.041Z,10.00
2023-03-27T15:03:40.462Z,9.70
2023-03-27T15:06:17.182Z,9.20
2023-03-27T15:08:57.633Z,8.60
2023-03-27T15:11:59.249Z,8.40
2023-03-27T15:14:33.827Z,8.50
2023-03-27T15:17:12.497Z,8.50
2023-03-27T15:19:49.244Z,8.50
2023-03-27T15:22:29.707Z,8.60
2023-03-27T15:25:03.151Z,8.50
2023-03-27T15:27:37.654Z,8.40
2023-03-27T15:30:19.914Z,8.20
2023-03-27T15:32:53.493Z,8.20
2023-03-27T15:35:34.574Z,8.10
2023-03-27T15:38:08.478Z,8.00
2023-03-27T15:40:43.369Z,7.90
2023-03-27T15:43:25.426Z,7.70
2023-03-27T15:46:17.506Z,7.70
2023-03-27T15:48:57.284Z,7.60
2023-03-27T15:51:34.222Z,7.70
2023-03-27T15:54:31.469Z,7.80
2023-03-27T15:57:11.230Z,7.70
2023-03-27T15:59:51.928Z,7.40
2023-03-27T16:02:26.429Z,7.10
2023-03-27T16:05:00.306Z,6.70
2023-03-27T16:07:46.996Z,6.80
2023-03-27T16:10:33.794Z,6.90
2023-03-27T16:13:08.857Z,7.10
2023-03-27T16:15:42.703Z,7.10
2023-03-27T16:18:25.269Z,7.20
2023-03-27T16:20:55.876Z,7.40
2023-03-27T16:23:29.186Z,7.40
2023-03-27T16:26:01.539Z,7.30
2023-03-27T16:28:32.368Z,7.30
2023-03-27T16:31:00.904Z,7.40
2023-03-27T16:33:30.917Z,7.40
2023-03-27T16:36:01.565Z,7.30
2023-03-27T16:38:36.407Z,7.10
2023-03-27T16:41:08.415Z,7.00
2023-03-27T16:43:40.493Z,6.90
2023-03-27T16:46:20.788Z,6.70
2023-03-27T16:48:52.718Z,6.50
2023-03-27T16:51:26.425Z,6.40
2023-03-27T16:53:58.212Z,6.20
2023-03-27T16:56:29.449Z,6.10
2023-03-27T16:59:00.395Z,6.00
2023-03-27T17:01:29.962Z,6.00
2023-03-27T17:04:01.021Z,5.70
2023-03-27T17:06:32.252Z,5.60
2023-03-27T17:09:04.645Z,5.60
2023-03-27T17:11:33.593Z,5.40
2023-03-27T17:14:03.714Z,5.40
2023-03-27T17:16:34.120Z,5.40
2023-03-27T17:19:04.588Z,5.30
2023-03-27T17:21:35.342Z,5.30
2023-03-27T17:24:07.992Z,5.20
2023-03-27T17:26:40.930Z,5.20
2023-03-27T17:29:14.463Z,5.20
2023-03-27T17:31:44.776Z,5.20
2023-03-27T17:34:14.047Z,5.20
2023-03-27T17:36:54.050Z,5.20
2023-03-27T17:39:27.445Z,5.10
2023-03-27T17:41:57.716Z,5.20
2023-03-27T17:44:28.117Z,5.20
2023-03-27T17:46:58.651Z,5.20
2023-03-27T17:49:28.485Z,5.20
2023-03-27T17:51:58.419Z,5.20
2023-03-27T17:54:29.726Z,5.10
2023-03-27T17:57:02.283Z,5.10
2023-03-27T17:59:33.629Z,5.00
2023-03-27T18:02:05.514Z,4.90
2023-03-27T18:04:37.342Z,4.90
2023-03-27T18:07:09.056Z,4.80
2023-03-27T18:09:41.512Z,4.70
2023-03-27T18:12:12.833Z,4.60
2023-03-27T18:14:44.143Z,4.50
2023-03-27T18:17:15.925Z,4.50
2023-03-27T18:19:46.104Z,4.40
2023-03-27T18:22:18.849Z,4.30
2023-03-27T18:24:53.368Z,4.20
2023-03-27T18:27:25.001Z,4.10
2023-03-27T18:29:57.552Z,4.00
2023-03-27T18:32:27.910Z,4.00
2023-03-27T18:34:58.491Z,4.00
2023-03-27T18:37:28.401Z,3.90
2023-03-27T18:40:01.421Z,3.80
2023-03-27T18:42:30.934Z,3.80
2023-03-27T18:45:02.218Z,3.80
2023-03-27T18:47:32.703Z,3.70
2023-03-27T18:50:03.036Z,3.70
2023-03-27T18:52:34.001Z,3.70
2023-03-27T18:55:06.383Z,3.80
2023-03-27T18:57:37.446Z,3.70
2023-03-27T19:00:09.598Z,3.80
2023-03-27T19:02:39.581Z,3.80
2023-03-27T19:05:11.402Z,3.80
2023-03-27T19:07:44.896Z,3.80
2023-03-27T19:10:18.307Z,3.80
2023-03-27T19:13:08.082Z,3.80
2023-03-27T19:15:57.367Z,3.90
2023-03-27T19:18:47.883Z,4.00
2023-03-27T19:21:44.330Z,4.10
2023-03-27T19:24:24.373Z,4.10
2023-03-27T19:26:59.369Z,4.20
2023-03-27T19:29:30.339Z,4.30
2023-03-27T19:32:02.577Z,4.30
2023-03-27T19:34:42.427Z,4.40
2023-03-27T19:37:13.897Z,4.40
2023-03-27T19:39:45.233Z,4.40
2023-03-27T19:42:18.487Z,4.40
2023-03-27T19:44:50.027Z,4.50
2023-03-27T19:47:20.778Z,4.40
2023-03-27T19:49:51.943Z,4.40
2023-03-27T19:52:42.202Z,4.40
2023-03-27T19:55:12.483Z,4.40
2023-03-27T19:57:45.958Z,4.40
2023-03-27T20:00:18.757Z,4.30
2023-03-27T20:02:49.026Z,4.20
2023-03-27T20:05:19.402Z,4.20
2023-03-27T20:07:50.381Z,4.30
2023-03-27T20:10:21.466Z,4.20
2023-03-27T20:12:53.208Z,4.30
2023-03-27T20:15:23.140Z,4.30
2023-03-27T20:17:54.094Z,4.20
2023-03-27T20:20:23.256Z,4.20
2023-03-27T20:22:58.080Z,4.20
2023-03-27T20:25:33.770Z,4.20
2023-03-27T20:28:08.155Z,4.30
2023-03-27T20:30:41.698Z,4.30
2023-03-27T20:33:12.553Z,4.30
2023-03-27T20:35:43.524Z,4.30
2023-03-27T20:38:14.020Z,4.30
2023-03-27T20:40:53.268Z,4.30
2023-03-27T20:43:31.062Z,4.30
2023-03-27T20:46:03.203Z,4.40
2023-03-27T20:48:41.969Z,4.40
2023-03-27T20:51:16.041Z,4.40
2023-03-27T20:53:55.253Z,4.40
2023-03-27T20:56:26.699Z,4.50
2023-03-27T20:58:59.862Z,4.50
2023-03-27T21:01:31.243Z,4.40
2023-03-27T21:13:16.157Z,4.30
2023-03-27T21:21:01.656Z,4.10
2023-03-27T21:23:32.156Z,4.00
2023-03-27T21:26:03.181Z,4.00
2023-03-27T21:28:35.272Z,4.00
2023-03-27T21:31:09.557Z,4.00
2023-03-27T21:33:40.507Z,4.00
2023-03-27T21:36:13.948Z,4.10
2023-03-27T21:38:44.565Z,4.10
2023-03-27T21:41:15.480Z,4.10
2023-03-27T21:43:44.363Z,4.00
2023-03-27T21:46:13.465Z,4.00
2023-03-27T21:48:44.269Z,4.00
2023-03-27T21:51:14.173Z,4.00
2023-03-27T21:53:42.817Z,3.90
2023-03-27T21:56:11.788Z,3.90
2023-03-27T21:58:40.234Z,3.90
2023-03-27T22:01:09.282Z,3.90
2023-03-27T22:03:37.888Z,3.90
2023-03-27T22:06:12.631Z,3.90
2023-03-27T22:08:44.537Z,3.90
2023-03-27T22:11:13.930Z,3.90
2023-03-27T22:13:43.525Z,3.90
2023-03-27T22:16:16.449Z,3.80
2023-03-27T22:18:45.579Z,3.80
2023-03-27T22:21:21.100Z,3.80
2023-03-27T22:23:52.802Z,3.70
2023-03-27T22:26:23.408Z,3.70
2023-03-27T22:28:52.837Z,3.70
2023-03-27T22:31:22.622Z,3.60
2023-03-27T22:33:51.906Z,3.60
2023-03-27T22:36:20.925Z,3.60
2023-03-27T22:38:51.390Z,3.50
2023-03-27T22:41:20.260Z,3.50
2023-03-27T22:43:49.826Z,3.40
2023-03-27T22:46:22.004Z,3.40
2023-03-27T22:48:56.341Z,3.50
2023-03-27T22:51:25.910Z,3.50
2023-03-27T22:53:58.043Z,3.50
2023-03-27T22:56:27.024Z,3.60
2023-03-27T22:58:55.645Z,3.60
2023-03-27T23:01:24.665Z,3.60
2023-03-27T23:03:53.586Z,3.70
2023-03-27T23:06:24.842Z,3.70
2023-03-27T23:08:53.872Z,3.80
2023-03-27T23:11:24.838Z,3.80
2023-03-27T23:13:53.885Z,3.80
2023-03-27T23:16:22.888Z,3.90
2023-03-27T23:18:51.742Z,3.90
2023-03-27T23:21:20.547Z,3.90
2023-03-27T23:23:49.757Z,3.90
2023-03-27T23:26:18.558Z,3.90
2023-03-27T23:28:48.928Z,3.80
2023-03-27T23:31:20.090Z,3.80
2023-03-27T23:33:51.760Z,3.70
2023-03-27T23:36:23.690Z,3.70
2023-03-27T23:38:54.559Z,3.60
2023-03-27T23:41:23.188Z,3.60
2023-03-27T23:43:54.116Z,3.60
2023-03-27T23:46:22.873Z,3.60
2023-03-27T23:48:51.582Z,3.50
2023-03-27T23:51:20.352Z,3.50
2023-03-27T23:53:49.457Z,3.40
2023-03-27T23:56:18.042Z,3.50
2023-03-27T23:58:46.630Z,3.50
